Catalina, California
Current Conditions -  °F | °C
As of 2:14 AM on Sunday 23 Nov 2014 (Local Time) from KAVX Reporting Station
Haze Haze  
Wind Chill: 57°   Ceiling: 200
Heat Index: 57°   Visibility: 0.75mi
Dew Point: 56°   Wind: 9mph
Humidity: 96%   Direction: 10°N
Pressure: 30.07"   Gusts: NA
Location:  33.382°N, 118.433°W
Report Text: KAVX 231014Z AUTO 01008KT 3/4SM BR VV002 14/13 A3007 RMK AO2 T01390133
Loading
Personal Weather Stations






























Interactive Weather Map New forecast layout! Learn more

10-Day Weather Forecast

Advertisements
Track Severe Weather on mobile